sensor_id;sensor_type;location;lat;lon;timestamp;temperature;humidity
27114;DHT22;14648;49.730;8.614;2023-05-14T00:02:19;14.50;57.10
27114;DHT22;14648;49.730;8.614;2023-05-14T00:04:45;14.50;57.20
27114;DHT22;14648;49.730;8.614;2023-05-14T00:07:10;14.50;57.40
27114;DHT22;14648;49.730;8.614;2023-05-14T00:09:36;14.50;57.40
27114;DHT22;14648;49.730;8.614;2023-05-14T00:12:02;14.50;57.40
27114;DHT22;14648;49.730;8.614;2023-05-14T00:14:28;14.40;57.40
27114;DHT22;14648;49.730;8.614;2023-05-14T00:16:54;14.40;57.50
27114;DHT22;14648;49.730;8.614;2023-05-14T00:19:19;14.30;57.50
27114;DHT22;14648;49.730;8.614;2023-05-14T00:21:46;14.40;57.60
27114;DHT22;14648;49.730;8.614;2023-05-14T00:24:12;14.30;57.60
27114;DHT22;14648;49.730;8.614;2023-05-14T00:26:37;14.30;57.70
27114;DHT22;14648;49.730;8.614;2023-05-14T00:29:03;14.30;57.70
27114;DHT22;14648;49.730;8.614;2023-05-14T00:31:29;14.20;57.60
27114;DHT22;14648;49.730;8.614;2023-05-14T00:33:55;14.20;57.70
27114;DHT22;14648;49.730;8.614;2023-05-14T00:36:20;14.20;57.70
27114;DHT22;14648;49.730;8.614;2023-05-14T00:38:46;14.10;57.80
27114;DHT22;14648;49.730;8.614;2023-05-14T00:41:12;14.10;57.80
27114;DHT22;14648;49.730;8.614;2023-05-14T00:43:37;14.10;57.80
27114;DHT22;14648;49.730;8.614;2023-05-14T00:46:03;14.10;57.90
27114;DHT22;14648;49.730;8.614;2023-05-14T00:48:29;14.00;57.90
27114;DHT22;14648;49.730;8.614;2023-05-14T00:50:55;14.00;57.90
27114;DHT22;14648;49.730;8.614;2023-05-14T00:53:21;13.90;58.00
27114;DHT22;14648;49.730;8.614;2023-05-14T00:55:48;13.90;58.00
27114;DHT22;14648;49.730;8.614;2023-05-14T00:58:14;13.90;58.30
27114;DHT22;14648;49.730;8.614;2023-05-14T01:00:43;13.80;58.00
27114;DHT22;14648;49.730;8.614;2023-05-14T01:03:09;13.80;58.00
27114;DHT22;14648;49.730;8.614;2023-05-14T01:05:51;13.80;58.00
27114;DHT22;14648;49.730;8.614;2023-05-14T01:11:12;13.70;58.20
27114;DHT22;14648;49.730;8.614;2023-05-14T01:13:51;13.70;58.10
27114;DHT22;14648;49.730;8.614;2023-05-14T01:16:25;13.70;58.20
27114;DHT22;14648;49.730;8.614;2023-05-14T01:18:53;13.70;58.10
27114;DHT22;14648;49.730;8.614;2023-05-14T01:24:01;13.60;58.40
27114;DHT22;14648;49.730;8.614;2023-05-14T01:26:27;13.60;58.20
27114;DHT22;14648;49.730;8.614;2023-05-14T01:28:59;13.50;58.30
27114;DHT22;14648;49.730;8.614;2023-05-14T01:31:30;13.50;58.50
27114;DHT22;14648;49.730;8.614;2023-05-14T01:33:57;13.50;58.60
27114;DHT22;14648;49.730;8.614;2023-05-14T01:36:24;13.40;58.50
27114;DHT22;14648;49.730;8.614;2023-05-14T01:38:52;13.40;58.60
27114;DHT22;14648;49.730;8.614;2023-05-14T01:41:19;13.40;58.70
27114;DHT22;14648;49.730;8.614;2023-05-14T01:43:47;13.30;58.70
27114;DHT22;14648;49.730;8.614;2023-05-14T01:46:16;13.30;58.80
27114;DHT22;14648;49.730;8.614;2023-05-14T01:48:42;13.20;58.80
27114;DHT22;14648;49.730;8.614;2023-05-14T01:51:08;13.20;59.00
27114;DHT22;14648;49.730;8.614;2023-05-14T01:53:34;13.20;59.00
27114;DHT22;14648;49.730;8.614;2023-05-14T01:56:00;13.20;59.00
27114;DHT22;14648;49.730;8.614;2023-05-14T01:58:26;13.20;59.10
27114;DHT22;14648;49.730;8.614;2023-05-14T02:00:51;13.10;59.10
27114;DHT22;14648;49.730;8.614;2023-05-14T02:03:17;13.20;59.10
27114;DHT22;14648;49.730;8.614;2023-05-14T02:05:42;13.10;59.10
27114;DHT22;14648;49.730;8.614;2023-05-14T02:08:08;13.10;59.10
27114;DHT22;14648;49.730;8.614;2023-05-14T02:10:34;13.10;59.20
27114;DHT22;14648;49.730;8.614;2023-05-14T02:13:01;13.00;59.20
27114;DHT22;14648;49.730;8.614;2023-05-14T02:15:27;13.00;59.30
27114;DHT22;14648;49.730;8.614;2023-05-14T02:17:53;13.00;59.30
27114;DHT22;14648;49.730;8.614;2023-05-14T02:20:18;13.00;59.40
27114;DHT22;14648;49.730;8.614;2023-05-14T02:22:44;13.00;59.50
27114;DHT22;14648;49.730;8.614;2023-05-14T02:25:10;12.90;59.50
27114;DHT22;14648;49.730;8.614;2023-05-14T02:27:36;12.80;59.50
27114;DHT22;14648;49.730;8.614;2023-05-14T02:30:03;12.90;59.60
27114;DHT22;14648;49.730;8.614;2023-05-14T02:32:32;12.80;59.50
27114;DHT22;14648;49.730;8.614;2023-05-14T02:35:00;12.80;59.50
27114;DHT22;14648;49.730;8.614;2023-05-14T02:37:25;12.80;59.60
27114;DHT22;14648;49.730;8.614;2023-05-14T02:39:51;12.80;59.60
27114;DHT22;14648;49.730;8.614;2023-05-14T02:42:17;12.80;59.70
27114;DHT22;14648;49.730;8.614;2023-05-14T02:44:43;12.80;59.50
27114;DHT22;14648;49.730;8.614;2023-05-14T02:47:09;12.80;59.60
27114;DHT22;14648;49.730;8.614;2023-05-14T02:49:34;12.80;59.60
27114;DHT22;14648;49.730;8.614;2023-05-14T02:52:00;12.70;59.60
27114;DHT22;14648;49.730;8.614;2023-05-14T02:54:26;12.70;59.70
27114;DHT22;14648;49.730;8.614;2023-05-14T02:56:51;12.70;59.70
27114;DHT22;14648;49.730;8.614;2023-05-14T02:59:17;12.60;59.60
27114;DHT22;14648;49.730;8.614;2023-05-14T03:01:43;12.60;59.60
27114;DHT22;14648;49.730;8.614;2023-05-14T03:04:08;12.60;59.60
27114;DHT22;14648;49.730;8.614;2023-05-14T03:06:34;12.60;59.70
27114;DHT22;14648;49.730;8.614;2023-05-14T03:08:59;12.60;59.70
27114;DHT22;14648;49.730;8.614;2023-05-14T03:11:25;12.50;59.70
27114;DHT22;14648;49.730;8.614;2023-05-14T03:13:51;12.50;59.70
27114;DHT22;14648;49.730;8.614;2023-05-14T03:16:16;12.50;59.60
27114;DHT22;14648;49.730;8.614;2023-05-14T03:18:42;12.50;59.70
27114;DHT22;14648;49.730;8.614;2023-05-14T03:21:08;12.40;59.70
27114;DHT22;14648;49.730;8.614;2023-05-14T03:23:34;12.40;59.70
27114;DHT22;14648;49.730;8.614;2023-05-14T03:26:00;12.40;59.70
27114;DHT22;14648;49.730;8.614;2023-05-14T03:28:26;12.40;59.70
27114;DHT22;14648;49.730;8.614;2023-05-14T03:30:52;12.40;59.60
27114;DHT22;14648;49.730;8.614;2023-05-14T03:33:17;12.30;59.80
27114;DHT22;14648;49.730;8.614;2023-05-14T03:35:43;12.30;59.90
27114;DHT22;14648;49.730;8.614;2023-05-14T03:38:09;12.20;59.90
27114;DHT22;14648;49.730;8.614;2023-05-14T03:40:35;12.20;60.00
27114;DHT22;14648;49.730;8.614;2023-05-14T03:43:00;12.20;60.00
27114;DHT22;14648;49.730;8.614;2023-05-14T03:45:26;12.20;60.00
27114;DHT22;14648;49.730;8.614;2023-05-14T03:47:53;12.20;60.10
27114;DHT22;14648;49.730;8.614;2023-05-14T03:50:18;12.10;60.10
27114;DHT22;14648;49.730;8.614;2023-05-14T03:52:44;12.10;60.80
27114;DHT22;14648;49.730;8.614;2023-05-14T03:55:10;12.10;60.10
27114;DHT22;14648;49.730;8.614;2023-05-14T03:57:36;12.10;60.00
27114;DHT22;14648;49.730;8.614;2023-05-14T04:00:03;12.10;60.00
27114;DHT22;14648;49.730;8.614;2023-05-14T04:02:29;12.10;60.20
27114;DHT22;14648;49.730;8.614;2023-05-14T04:04:55;12.10;60.20
27114;DHT22;14648;49.730;8.614;2023-05-14T04:07:21;12.10;60.20
27114;DHT22;14648;49.730;8.614;2023-05-14T04:09:46;12.00;60.10
27114;DHT22;14648;49.730;8.614;2023-05-14T04:12:13;12.10;60.30
27114;DHT22;14648;49.730;8.614;2023-05-14T04:14:39;12.10;60.40
27114;DHT22;14648;49.730;8.614;2023-05-14T04:17:04;12.00;60.40
27114;DHT22;14648;49.730;8.614;2023-05-14T04:19:31;12.00;60.40
27114;DHT22;14648;49.730;8.614;2023-05-14T04:21:57;12.00;60.40
27114;DHT22;14648;49.730;8.614;2023-05-14T04:24:24;12.00;60.40
27114;DHT22;14648;49.730;8.614;2023-05-14T04:26:50;12.10;60.60
27114;DHT22;14648;49.730;8.614;2023-05-14T04:29:16;12.10;60.60
27114;DHT22;14648;49.730;8.614;2023-05-14T04:31:43;12.00;60.50
27114;DHT22;14648;49.730;8.614;2023-05-14T04:34:09;12.00;60.50
27114;DHT22;14648;49.730;8.614;2023-05-14T04:36:34;12.10;60.60
27114;DHT22;14648;49.730;8.614;2023-05-14T04:39:00;12.10;60.70
27114;DHT22;14648;49.730;8.614;2023-05-14T04:41:26;12.00;60.70
27114;DHT22;14648;49.730;8.614;2023-05-14T04:43:55;12.00;60.70
27114;DHT22;14648;49.730;8.614;2023-05-14T04:46:21;12.10;61.00
27114;DHT22;14648;49.730;8.614;2023-05-14T04:48:47;12.10;60.90
27114;DHT22;14648;49.730;8.614;2023-05-14T04:51:13;12.10;60.90
27114;DHT22;14648;49.730;8.614;2023-05-14T04:53:39;12.10;61.00
27114;DHT22;14648;49.730;8.614;2023-05-14T04:56:08;12.10;61.00
27114;DHT22;14648;49.730;8.614;2023-05-14T04:58:35;12.10;61.00
27114;DHT22;14648;49.730;8.614;2023-05-14T05:01:09;12.10;61.00
27114;DHT22;14648;49.730;8.614;2023-05-14T05:03:34;12.10;61.10
27114;DHT22;14648;49.730;8.614;2023-05-14T05:06:00;12.20;61.10
27114;DHT22;14648;49.730;8.614;2023-05-14T05:08:26;12.10;61.20
27114;DHT22;14648;49.730;8.614;2023-05-14T05:10:52;12.10;61.10
27114;DHT22;14648;49.730;8.614;2023-05-14T05:13:17;12.10;61.10
27114;DHT22;14648;49.730;8.614;2023-05-14T05:15:43;12.10;61.20
27114;DHT22;14648;49.730;8.614;2023-05-14T05:18:09;12.10;61.40
27114;DHT22;14648;49.730;8.614;2023-05-14T05:20:35;12.10;61.50
27114;DHT22;14648;49.730;8.614;2023-05-14T05:23:00;12.00;61.60
27114;DHT22;14648;49.730;8.614;2023-05-14T05:25:26;12.00;61.80
27114;DHT22;14648;49.730;8.614;2023-05-14T05:27:52;12.00;61.90
27114;DHT22;14648;49.730;8.614;2023-05-14T05:30:19;12.10;62.10
27114;DHT22;14648;49.730;8.614;2023-05-14T05:32:44;12.10;62.10
27114;DHT22;14648;49.730;8.614;2023-05-14T05:35:11;12.10;62.10
27114;DHT22;14648;49.730;8.614;2023-05-14T05:37:37;12.20;62.20
27114;DHT22;14648;49.730;8.614;2023-05-14T05:40:05;12.20;62.20
27114;DHT22;14648;49.730;8.614;2023-05-14T05:42:31;12.30;62.40
27114;DHT22;14648;49.730;8.614;2023-05-14T05:44:57;12.30;62.50
27114;DHT22;14648;49.730;8.614;2023-05-14T05:47:22;12.40;62.40
27114;DHT22;14648;49.730;8.614;2023-05-14T05:49:48;12.50;62.50
27114;DHT22;14648;49.730;8.614;2023-05-14T05:52:14;12.50;62.50
27114;DHT22;14648;49.730;8.614;2023-05-14T05:54:39;12.60;62.60
27114;DHT22;14648;49.730;8.614;2023-05-14T05:57:05;12.70;62.80
27114;DHT22;14648;49.730;8.614;2023-05-14T05:59:31;12.80;62.90
27114;DHT22;14648;49.730;8.614;2023-05-14T06:01:56;12.90;62.90
27114;DHT22;14648;49.730;8.614;2023-05-14T06:04:22;13.00;62.90
27114;DHT22;14648;49.730;8.614;2023-05-14T06:06:48;13.10;63.10
27114;DHT22;14648;49.730;8.614;2023-05-14T06:09:14;13.20;63.10
27114;DHT22;14648;49.730;8.614;2023-05-14T06:11:40;13.30;63.30
27114;DHT22;14648;49.730;8.614;2023-05-14T06:14:06;13.40;63.30
27114;DHT22;14648;49.730;8.614;2023-05-14T06:16:32;13.60;63.50
27114;DHT22;14648;49.730;8.614;2023-05-14T06:19:00;13.60;63.50
27114;DHT22;14648;49.730;8.614;2023-05-14T06:21:29;13.80;63.60
27114;DHT22;14648;49.730;8.614;2023-05-14T06:23:55;13.90;63.80
27114;DHT22;14648;49.730;8.614;2023-05-14T06:26:20;14.00;63.60
27114;DHT22;14648;49.730;8.614;2023-05-14T06:28:46;14.00;63.60
27114;DHT22;14648;49.730;8.614;2023-05-14T06:31:14;14.20;63.70
27114;DHT22;14648;49.730;8.614;2023-05-14T06:33:43;14.20;63.70
27114;DHT22;14648;49.730;8.614;2023-05-14T06:36:09;14.30;63.90
27114;DHT22;14648;49.730;8.614;2023-05-14T06:38:35;14.40;64.70
27114;DHT22;14648;49.730;8.614;2023-05-14T06:41:02;14.50;64.10
27114;DHT22;14648;49.730;8.614;2023-05-14T06:43:28;14.60;64.10
27114;DHT22;14648;49.730;8.614;2023-05-14T06:45:53;14.80;64.00
27114;DHT22;14648;49.730;8.614;2023-05-14T06:48:19;15.00;63.80
27114;DHT22;14648;49.730;8.614;2023-05-14T06:50:46;15.20;63.60
27114;DHT22;14648;49.730;8.614;2023-05-14T06:53:13;15.50;63.30
27114;DHT22;14648;49.730;8.614;2023-05-14T06:55:39;15.60;62.90
27114;DHT22;14648;49.730;8.614;2023-05-14T06:58:06;15.90;62.60
27114;DHT22;14648;49.730;8.614;2023-05-14T07:00:32;16.00;62.40
27114;DHT22;14648;49.730;8.614;2023-05-14T07:02:58;16.30;61.80
27114;DHT22;14648;49.730;8.614;2023-05-14T07:05:24;16.50;61.50
27114;DHT22;14648;49.730;8.614;2023-05-14T07:07:50;16.60;61.00
27114;DHT22;14648;49.730;8.614;2023-05-14T07:10:16;16.80;60.80
27114;DHT22;14648;49.730;8.614;2023-05-14T07:12:42;16.90;60.50
27114;DHT22;14648;49.730;8.614;2023-05-14T07:15:08;17.00;60.00
27114;DHT22;14648;49.730;8.614;2023-05-14T07:17:34;17.10;59.80
27114;DHT22;14648;49.730;8.614;2023-05-14T07:20:00;17.20;59.40
27114;DHT22;14648;49.730;8.614;2023-05-14T07:22:26;17.30;59.30
27114;DHT22;14648;49.730;8.614;2023-05-14T07:24:51;17.30;59.00
27114;DHT22;14648;49.730;8.614;2023-05-14T07:27:17;17.30;58.70
27114;DHT22;14648;49.730;8.614;2023-05-14T07:29:43;17.40;58.50
27114;DHT22;14648;49.730;8.614;2023-05-14T07:32:09;17.40;58.40
27114;DHT22;14648;49.730;8.614;2023-05-14T07:34:34;17.50;58.50
27114;DHT22;14648;49.730;8.614;2023-05-14T07:37:01;17.60;58.40
27114;DHT22;14648;49.730;8.614;2023-05-14T07:39:26;17.70;58.20
27114;DHT22;14648;49.730;8.614;2023-05-14T07:41:52;17.70;57.80
27114;DHT22;14648;49.730;8.614;2023-05-14T07:44:21;17.80;57.60
27114;DHT22;14648;49.730;8.614;2023-05-14T07:46:46;17.90;57.40
27114;DHT22;14648;49.730;8.614;2023-05-14T07:49:12;18.00;57.10
27114;DHT22;14648;49.730;8.614;2023-05-14T07:51:38;18.00;56.90
27114;DHT22;14648;49.730;8.614;2023-05-14T07:54:03;18.10;57.20
27114;DHT22;14648;49.730;8.614;2023-05-14T07:56:29;18.20;56.80
27114;DHT22;14648;49.730;8.614;2023-05-14T07:58:55;18.30;56.70
27114;DHT22;14648;49.730;8.614;2023-05-14T08:01:21;18.40;56.20
27114;DHT22;14648;49.730;8.614;2023-05-14T08:03:47;18.50;55.80
27114;DHT22;14648;49.730;8.614;2023-05-14T08:06:13;18.50;55.10
27114;DHT22;14648;49.730;8.614;2023-05-14T08:08:39;18.50;54.80
27114;DHT22;14648;49.730;8.614;2023-05-14T08:11:05;18.50;54.60
27114;DHT22;14648;49.730;8.614;2023-05-14T08:13:30;18.60;54.60
27114;DHT22;14648;49.730;8.614;2023-05-14T08:15:56;18.60;54.40
27114;DHT22;14648;49.730;8.614;2023-05-14T08:18:22;18.60;54.00
27114;DHT22;14648;49.730;8.614;2023-05-14T08:20:48;18.50;53.80
27114;DHT22;14648;49.730;8.614;2023-05-14T08:23:14;18.50;54.00
27114;DHT22;14648;49.730;8.614;2023-05-14T08:25:39;18.50;53.80
27114;DHT22;14648;49.730;8.614;2023-05-14T08:28:06;18.60;53.60
27114;DHT22;14648;49.730;8.614;2023-05-14T08:30:32;18.60;53.40
27114;DHT22;14648;49.730;8.614;2023-05-14T08:32:58;18.70;53.20
27114;DHT22;14648;49.730;8.614;2023-05-14T08:35:24;18.80;52.80
27114;DHT22;14648;49.730;8.614;2023-05-14T08:37:50;18.80;52.80
27114;DHT22;14648;49.730;8.614;2023-05-14T08:40:17;18.90;52.40
27114;DHT22;14648;49.730;8.614;2023-05-14T08:42:42;19.00;52.40
27114;DHT22;14648;49.730;8.614;2023-05-14T08:45:16;19.10;53.20
27114;DHT22;14648;49.730;8.614;2023-05-14T08:47:47;19.00;52.30
27114;DHT22;14648;49.730;8.614;2023-05-14T08:50:17;19.00;52.70
27114;DHT22;14648;49.730;8.614;2023-05-14T08:52:44;19.00;52.70
27114;DHT22;14648;49.730;8.614;2023-05-14T08:55:11;19.00;52.40
27114;DHT22;14648;49.730;8.614;2023-05-14T08:57:37;19.10;53.20
27114;DHT22;14648;49.730;8.614;2023-05-14T09:00:03;19.20;52.20
27114;DHT22;14648;49.730;8.614;2023-05-14T09:02:34;19.30;51.80
27114;DHT22;14648;49.730;8.614;2023-05-14T09:05:01;19.50;51.20
27114;DHT22;14648;49.730;8.614;2023-05-14T09:07:28;19.60;50.70
27114;DHT22;14648;49.730;8.614;2023-05-14T09:09:54;19.80;50.90
27114;DHT22;14648;49.730;8.614;2023-05-14T09:12:20;19.90;50.70
27114;DHT22;14648;49.730;8.614;2023-05-14T09:14:47;20.00;50.30
27114;DHT22;14648;49.730;8.614;2023-05-14T09:17:14;20.10;50.20
27114;DHT22;14648;49.730;8.614;2023-05-14T09:19:41;20.30;50.10
27114;DHT22;14648;49.730;8.614;2023-05-14T09:22:12;20.40;50.00
27114;DHT22;14648;49.730;8.614;2023-05-14T09:24:39;20.60;50.10
27114;DHT22;14648;49.730;8.614;2023-05-14T09:27:06;20.70;49.80
27114;DHT22;14648;49.730;8.614;2023-05-14T09:29:33;20.90;49.20
27114;DHT22;14648;49.730;8.614;2023-05-14T09:32:00;21.00;48.70
27114;DHT22;14648;49.730;8.614;2023-05-14T09:34:32;21.00;48.70
27114;DHT22;14648;49.730;8.614;2023-05-14T09:37:03;21.00;48.70
27114;DHT22;14648;49.730;8.614;2023-05-14T09:39:32;21.10;48.60
27114;DHT22;14648;49.730;8.614;2023-05-14T09:41:59;21.00;48.70
27114;DHT22;14648;49.730;8.614;2023-05-14T09:44:25;20.80;48.50
27114;DHT22;14648;49.730;8.614;2023-05-14T09:46:51;20.70;48.90
27114;DHT22;14648;49.730;8.614;2023-05-14T09:49:18;20.70;48.90
27114;DHT22;14648;49.730;8.614;2023-05-14T09:51:43;20.70;48.40
27114;DHT22;14648;49.730;8.614;2023-05-14T09:54:10;20.70;48.30
27114;DHT22;14648;49.730;8.614;2023-05-14T09:56:36;20.60;48.20
27114;DHT22;14648;49.730;8.614;2023-05-14T09:59:03;20.70;48.20
27114;DHT22;14648;49.730;8.614;2023-05-14T10:01:30;20.70;48.30
27114;DHT22;14648;49.730;8.614;2023-05-14T10:03:57;20.60;48.30
27114;DHT22;14648;49.730;8.614;2023-05-14T10:06:26;20.60;48.10
27114;DHT22;14648;49.730;8.614;2023-05-14T10:08:56;20.60;48.10
27114;DHT22;14648;49.730;8.614;2023-05-14T10:11:27;20.60;48.20
27114;DHT22;14648;49.730;8.614;2023-05-14T10:14:10;20.60;47.90
27114;DHT22;14648;49.730;8.614;2023-05-14T10:17:01;20.60;47.70
27114;DHT22;14648;49.730;8.614;2023-05-14T10:19:32;20.60;47.40
27114;DHT22;14648;49.730;8.614;2023-05-14T10:22:04;20.60;47.60
27114;DHT22;14648;49.730;8.614;2023-05-14T10:24:31;20.70;47.80
27114;DHT22;14648;49.730;8.614;2023-05-14T10:26:58;20.80;47.80
27114;DHT22;14648;49.730;8.614;2023-05-14T10:29:34;20.80;47.70
27114;DHT22;14648;49.730;8.614;2023-05-14T10:32:06;20.90;48.70
27114;DHT22;14648;49.730;8.614;2023-05-14T10:37:13;21.10;47.40
27114;DHT22;14648;49.730;8.614;2023-05-14T10:39:47;21.20;46.80
27114;DHT22;14648;49.730;8.614;2023-05-14T10:42:40;21.30;46.40
27114;DHT22;14648;49.730;8.614;2023-05-14T10:45:12;21.20;45.80
27114;DHT22;14648;49.730;8.614;2023-05-14T10:47:43;21.20;46.10
27114;DHT22;14648;49.730;8.614;2023-05-14T10:50:13;21.10;46.00
27114;DHT22;14648;49.730;8.614;2023-05-14T10:52:41;21.00;45.60
27114;DHT22;14648;49.730;8.614;2023-05-14T10:55:08;20.90;45.80
27114;DHT22;14648;49.730;8.614;2023-05-14T10:57:37;20.80;45.70
27114;DHT22;14648;49.730;8.614;2023-05-14T11:00:05;20.70;45.40
27114;DHT22;14648;49.730;8.614;2023-05-14T11:02:36;20.70;45.40
27114;DHT22;14648;49.730;8.614;2023-05-14T11:05:13;20.60;45.30
27114;DHT22;14648;49.730;8.614;2023-05-14T11:07:43;20.50;45.20
27114;DHT22;14648;49.730;8.614;2023-05-14T11:10:17;20.50;45.40
27114;DHT22;14648;49.730;8.614;2023-05-14T11:12:45;20.50;45.40
27114;DHT22;14648;49.730;8.614;2023-05-14T11:15:20;20.50;45.40
27114;DHT22;14648;49.730;8.614;2023-05-14T11:17:48;20.50;45.70
27114;DHT22;14648;49.730;8.614;2023-05-14T11:20:15;20.50;45.60
27114;DHT22;14648;49.730;8.614;2023-05-14T11:22:42;20.60;45.40
27114;DHT22;14648;49.730;8.614;2023-05-14T11:25:09;20.60;45.20
27114;DHT22;14648;49.730;8.614;2023-05-14T11:27:37;20.60;45.20
27114;DHT22;14648;49.730;8.614;2023-05-14T11:30:04;20.60;45.20
27114;DHT22;14648;49.730;8.614;2023-05-14T11:32:31;20.70;45.30
27114;DHT22;14648;49.730;8.614;2023-05-14T11:35:01;20.70;45.90
27114;DHT22;14648;49.730;8.614;2023-05-14T11:37:27;20.70;45.30
27114;DHT22;14648;49.730;8.614;2023-05-14T11:39:58;20.70;45.40
27114;DHT22;14648;49.730;8.614;2023-05-14T11:42:25;20.70;45.40
27114;DHT22;14648;49.730;8.614;2023-05-14T11:44:51;20.60;45.40
27114;DHT22;14648;49.730;8.614;2023-05-14T11:47:19;20.60;45.40
27114;DHT22;14648;49.730;8.614;2023-05-14T11:49:46;20.70;45.40
27114;DHT22;14648;49.730;8.614;2023-05-14T11:52:13;20.60;45.40
27114;DHT22;14648;49.730;8.614;2023-05-14T11:54:41;20.60;45.20
27114;DHT22;14648;49.730;8.614;2023-05-14T11:57:17;20.60;45.10
27114;DHT22;14648;49.730;8.614;2023-05-14T11:59:44;20.60;45.00
27114;DHT22;14648;49.730;8.614;2023-05-14T12:02:15;20.60;44.90
27114;DHT22;14648;49.730;8.614;2023-05-14T12:04:43;20.50;44.90
27114;DHT22;14648;49.730;8.614;2023-05-14T12:07:11;20.50;45.00
27114;DHT22;14648;49.730;8.614;2023-05-14T12:09:47;20.40;45.30
27114;DHT22;14648;49.730;8.614;2023-05-14T12:12:15;20.40;45.50
27114;DHT22;14648;49.730;8.614;2023-05-14T12:14:45;20.30;45.60
27114;DHT22;14648;49.730;8.614;2023-05-14T12:17:14;20.30;45.60
27114;DHT22;14648;49.730;8.614;2023-05-14T12:19:42;20.20;45.90
27114;DHT22;14648;49.730;8.614;2023-05-14T12:22:18;20.20;45.90
27114;DHT22;14648;49.730;8.614;2023-05-14T12:24:55;20.10;46.00
27114;DHT22;14648;49.730;8.614;2023-05-14T12:27:24;20.00;46.00
27114;DHT22;14648;49.730;8.614;2023-05-14T12:30:01;20.00;46.10
27114;DHT22;14648;49.730;8.614;2023-05-14T12:32:36;20.00;46.20
27114;DHT22;14648;49.730;8.614;2023-05-14T12:35:04;20.00;46.20
27114;DHT22;14648;49.730;8.614;2023-05-14T12:37:30;20.00;45.90
27114;DHT22;14648;49.730;8.614;2023-05-14T12:39:56;19.90;45.80
27114;DHT22;14648;49.730;8.614;2023-05-14T12:42:21;19.90;45.70
27114;DHT22;14648;49.730;8.614;2023-05-14T12:44:47;19.90;45.70
27114;DHT22;14648;49.730;8.614;2023-05-14T12:47:13;19.80;45.70
27114;DHT22;14648;49.730;8.614;2023-05-14T12:49:39;19.90;45.90
27114;DHT22;14648;49.730;8.614;2023-05-14T12:52:05;19.90;46.20
27114;DHT22;14648;49.730;8.614;2023-05-14T12:54:31;19.90;46.10
27114;DHT22;14648;49.730;8.614;2023-05-14T12:56:57;20.00;46.20
27114;DHT22;14648;49.730;8.614;2023-05-14T12:59:23;20.00;46.30
27114;DHT22;14648;49.730;8.614;2023-05-14T13:01:48;20.10;46.30
27114;DHT22;14648;49.730;8.614;2023-05-14T13:04:14;20.10;46.10
27114;DHT22;14648;49.730;8.614;2023-05-14T13:06:41;20.20;46.20
27114;DHT22;14648;49.730;8.614;2023-05-14T13:09:07;20.30;46.10
27114;DHT22;14648;49.730;8.614;2023-05-14T13:11:33;20.30;45.90
27114;DHT22;14648;49.730;8.614;2023-05-14T13:14:00;20.40;45.80
27114;DHT22;14648;49.730;8.614;2023-05-14T13:16:26;20.50;45.70
27114;DHT22;14648;49.730;8.614;2023-05-14T13:18:53;20.50;45.70
27114;DHT22;14648;49.730;8.614;2023-05-14T13:21:19;20.60;45.80
27114;DHT22;14648;49.730;8.614;2023-05-14T13:23:47;20.60;45.90
27114;DHT22;14648;49.730;8.614;2023-05-14T13:26:13;20.60;46.10
27114;DHT22;14648;49.730;8.614;2023-05-14T13:28:39;20.70;46.10
27114;DHT22;14648;49.730;8.614;2023-05-14T13:31:07;20.80;46.00
27114;DHT22;14648;49.730;8.614;2023-05-14T13:33:35;20.80;45.90
27114;DHT22;14648;49.730;8.614;2023-05-14T13:36:02;21.00;45.40
27114;DHT22;14648;49.730;8.614;2023-05-14T13:38:28;21.10;45.20
27114;DHT22;14648;49.730;8.614;2023-05-14T13:40:57;21.30;45.00
27114;DHT22;14648;49.730;8.614;2023-05-14T13:43:52;21.50;45.30
27114;DHT22;14648;49.730;8.614;2023-05-14T13:46:22;21.80;45.40
27114;DHT22;14648;49.730;8.614;2023-05-14T13:48:47;22.10;45.00
27114;DHT22;14648;49.730;8.614;2023-05-14T13:51:13;22.30;44.60
27114;DHT22;14648;49.730;8.614;2023-05-14T13:53:41;22.60;41.50
27114;DHT22;14648;49.730;8.614;2023-05-14T13:56:08;22.70;41.90
27114;DHT22;14648;49.730;8.614;2023-05-14T13:58:34;22.90;42.00
27114;DHT22;14648;49.730;8.614;2023-05-14T14:01:00;23.00;41.80
27114;DHT22;14648;49.730;8.614;2023-05-14T14:03:25;23.20;41.80
27114;DHT22;14648;49.730;8.614;2023-05-14T14:05:51;23.30;41.60
27114;DHT22;14648;49.730;8.614;2023-05-14T14:08:17;23.50;41.30
27114;DHT22;14648;49.730;8.614;2023-05-14T14:10:43;23.70;41.10
27114;DHT22;14648;49.730;8.614;2023-05-14T14:13:10;23.90;40.50
27114;DHT22;14648;49.730;8.614;2023-05-14T14:15:36;24.10;40.10
27114;DHT22;14648;49.730;8.614;2023-05-14T14:18:02;24.20;39.80
27114;DHT22;14648;49.730;8.614;2023-05-14T14:20:28;24.40;39.60
27114;DHT22;14648;49.730;8.614;2023-05-14T14:22:55;24.50;39.80
27114;DHT22;14648;49.730;8.614;2023-05-14T14:25:21;24.50;39.70
27114;DHT22;14648;49.730;8.614;2023-05-14T14:27:47;24.60;39.20
27114;DHT22;14648;49.730;8.614;2023-05-14T14:30:13;24.70;39.20
27114;DHT22;14648;49.730;8.614;2023-05-14T14:32:45;24.80;39.10
27114;DHT22;14648;49.730;8.614;2023-05-14T14:35:13;24.80;38.90
27114;DHT22;14648;49.730;8.614;2023-05-14T14:37:41;24.80;39.10
27114;DHT22;14648;49.730;8.614;2023-05-14T14:40:08;24.80;39.10
27114;DHT22;14648;49.730;8.614;2023-05-14T14:42:35;24.90;39.10
27114;DHT22;14648;49.730;8.614;2023-05-14T14:45:05;24.90;38.80
27114;DHT22;14648;49.730;8.614;2023-05-14T14:47:31;24.80;38.70
27114;DHT22;14648;49.730;8.614;2023-05-14T14:49:57;24.80;38.70
27114;DHT22;14648;49.730;8.614;2023-05-14T14:52:24;24.80;38.60
27114;DHT22;14648;49.730;8.614;2023-05-14T14:54:52;24.60;38.30
27114;DHT22;14648;49.730;8.614;2023-05-14T14:57:18;24.60;38.30
27114;DHT22;14648;49.730;8.614;2023-05-14T14:59:44;24.60;38.40
27114;DHT22;14648;49.730;8.614;2023-05-14T15:02:10;24.70;38.20
27114;DHT22;14648;49.730;8.614;2023-05-14T15:04:36;24.70;38.00
27114;DHT22;14648;49.730;8.614;2023-05-14T15:07:03;24.70;38.20
27114;DHT22;14648;49.730;8.614;2023-05-14T15:09:30;24.80;37.40
27114;DHT22;14648;49.730;8.614;2023-05-14T15:11:56;24.80;37.20
27114;DHT22;14648;49.730;8.614;2023-05-14T15:14:21;24.80;37.20
27114;DHT22;14648;49.730;8.614;2023-05-14T15:16:47;24.80;37.10
27114;DHT22;14648;49.730;8.614;2023-05-14T15:19:15;24.60;37.10
27114;DHT22;14648;49.730;8.614;2023-05-14T15:21:44;24.50;37.20
27114;DHT22;14648;49.730;8.614;2023-05-14T15:24:10;24.40;37.40
27114;DHT22;14648;49.730;8.614;2023-05-14T15:26:40;24.20;37.50
27114;DHT22;14648;49.730;8.614;2023-05-14T15:29:06;24.10;37.80
27114;DHT22;14648;49.730;8.614;2023-05-14T15:31:32;24.00;37.90
27114;DHT22;14648;49.730;8.614;2023-05-14T15:33:58;23.90;37.90
27114;DHT22;14648;49.730;8.614;2023-05-14T15:36:23;23.90;37.90
27114;DHT22;14648;49.730;8.614;2023-05-14T15:38:49;23.90;37.50